Boulevard, CA

11:14 PM PDT on October 22, 2014 (GMT -0700)
Tierra Del Sol | Change Station
CLOSE
Current Station
Personal Weather Station
Location: Boulevard, CA
Elevation: 3710 ft
Nearby Weather Stations

Elev 3710 ft 32.61 °N, 116.33 °W | Updated 4 minutes ago

Partly Cloudy
Partly Cloudy
63.5 °F
Feels Like 63.5 °F
N
0.0
Wind Variable Wind from North
Gusts 2.0 mph

Today
High -- | Low -- °F
--% Chance of Precip.
Yesterday
High -- | Low -- °F
Precip. -- in
6:54 AM 6:04 PM
Waning Crescent, 0% visible
Pressure 29.94 in
Visibility -9999.0 miles
Clouds
Dew Point 38 °F
Humidity 38%
Rainfall 0.00 in
Snow Depth Not available.
UV Not available.
Pollen 3.90 out of 12
Air Quality Not available.
Flu Activity Sporadic
METAR KCZZ 230552Z AUTO 04005KT 13/01 A3003 RMK AO1 SLP139 T01330006 10261 20122 51009

More Conditions Fewer Conditions

Pressure 29.94 in
Visibility -9999.0 miles
Clouds
Dew Point 38 °F
Humidity 38%
Rainfall 0.00 in
Snow Depth Not available.
UV Not available.
Pollen 3.90 out of 12
Air Quality Not available.
Flu Activity Sporadic
METAR KCZZ 230552Z AUTO 04005KT 13/01 A3003 RMK AO1 SLP139 T01330006 10261 20122 51009

More Conditions Fewer Conditions

10-Day Weather Forecast

Almanac

Astronomy

Oct. 22, 2014 Rise Set
Actual Time 6:54 AM PDT 6:04 PM PDT
Civil Twilight 6:29 AM PDT 6:29 PM PDT
Nautical Twilight 6:00 AM PDT 6:57 PM PDT
Astronomical Twilight 5:32 AM PDT 7:26 PM PDT
Moon 5:44 AM PDT (10/22) 5:30 PM PDT (10/22)
Length of Visible Light 11h 59m
Length of Day
11h 09m
Tomorrow will be 1m 53s shorter.
Waning Crescent, 0% of the Moon is Illuminated
Oct 23
Waning Crescent
Oct 23
New
Oct 30
First Quarter
Nov 6
Full
Nov 14
Last Quarter

Yesterday's Extremes

State Highs State Lows

Community

WunderPhotos

Upload Photos

1,764,194 photos uploaded!

Nearby

Snow Depth

Station Depth Elevation
Virginia Lakes Ridge 0 in 9200 ft
Leavitt Meadows 0 in 7200 ft
Sonora Pass 0 in 8800 ft
Summit Meadow 1 in 9122 ft
Poison Flat 0 in 7900 ft

Earthquake Activity

City Distance Mag. Time & Date
Alberto Oviedo Mota, Mexico 90 miles 3.5 9:05 PM PDT
2014-10-21
Delta, Mexico 65 miles 2.5 8:53 PM PDT
2014-10-21
Alberto Oviedo Mota, Mexico 76 miles 2.7 4:13 PM PDT
2014-10-21
Alberto Oviedo Mota, Mexico 74 miles 3.3 3:57 PM PDT
2014-10-21
Minimum magnitude displayed is 2.5.

Coastal Water Temperatures

Place Temperature
No Stations Reporting

Nearby Weather Stations